createdAt,value
2018-10-05T00:16:16.721Z,99.90
2018-10-05T00:18:45.226Z,99.90
2018-10-05T00:21:14.683Z,99.90
2018-10-05T00:23:43.223Z,99.90
2018-10-05T00:26:11.727Z,99.90
2018-10-05T00:28:40.219Z,99.90
2018-10-05T00:31:09.145Z,99.90
2018-10-05T00:33:37.689Z,99.90
2018-10-05T00:36:06.450Z,99.90
2018-10-05T00:38:35.298Z,99.90
2018-10-05T00:41:03.773Z,99.90
2018-10-05T00:43:32.542Z,99.90
2018-10-05T00:46:01.228Z,99.90
2018-10-05T00:48:29.739Z,99.90
2018-10-05T00:50:58.242Z,99.90
2018-10-05T00:53:26.809Z,99.90
2018-10-05T00:55:55.270Z,99.90
2018-10-05T00:58:23.727Z,99.90
2018-10-05T01:00:53.412Z,99.90
2018-10-05T01:03:21.905Z,99.90
2018-10-05T01:05:50.400Z,99.90
2018-10-05T01:08:18.910Z,99.90
2018-10-05T01:10:47.441Z,99.90
2018-10-05T01:13:17.473Z,99.90
2018-10-05T01:15:45.998Z,99.90
2018-10-05T01:23:12.207Z,99.90
2018-10-05T01:25:40.714Z,99.90
2018-10-05T01:28:09.226Z,99.90
2018-10-05T01:30:37.771Z,99.90
2018-10-05T01:33:06.390Z,99.90
2018-10-05T01:35:34.894Z,99.90
2018-10-05T01:38:03.455Z,99.90
2018-10-05T01:40:31.939Z,99.90
2018-10-05T01:43:00.773Z,99.90
2018-10-05T01:45:29.801Z,99.90
2018-10-05T01:47:58.308Z,99.90
2018-10-05T01:50:27.191Z,99.90
2018-10-05T01:52:57.961Z,99.90
2018-10-05T01:55:26.453Z,99.90
2018-10-05T01:57:54.922Z,99.90
2018-10-05T02:00:23.439Z,99.90
2018-10-05T02:02:51.909Z,99.90
2018-10-05T02:05:20.438Z,99.90
2018-10-05T02:07:49.657Z,99.90
2018-10-05T02:10:18.151Z,99.90
2018-10-05T02:12:46.639Z,99.90
2018-10-05T02:20:15.584Z,99.90
2018-10-05T02:22:44.163Z,99.90
2018-10-05T02:25:12.807Z,99.90
2018-10-05T02:27:42.271Z,99.90
2018-10-05T02:30:10.795Z,99.90
2018-10-05T02:32:39.304Z,99.90
2018-10-05T02:35:07.869Z,99.90
2018-10-05T02:37:36.647Z,99.90
2018-10-05T02:40:05.461Z,99.90
2018-10-05T02:42:34.275Z,99.90
2018-10-05T02:45:03.206Z,99.90
2018-10-05T02:47:32.170Z,99.90
2018-10-05T02:50:01.370Z,99.90
2018-10-05T02:52:29.955Z,99.90
2018-10-05T02:54:58.454Z,99.90
2018-10-05T02:57:27.020Z,99.90
2018-10-05T02:59:55.632Z,99.90
2018-10-05T03:02:35.901Z,99.90
2018-10-05T03:05:05.112Z,99.90
2018-10-05T03:07:33.587Z,99.90
2018-10-05T03:10:03.211Z,99.90
2018-10-05T03:12:31.880Z,99.90
2018-10-05T03:15:00.710Z,99.90
2018-10-05T03:17:29.295Z,99.90
2018-10-05T03:19:57.895Z,99.90
2018-10-05T03:22:26.576Z,99.90
2018-10-05T03:24:55.328Z,99.90
2018-10-05T03:27:23.924Z,99.90
2018-10-05T03:29:52.770Z,99.90
2018-10-05T03:32:21.786Z,99.90
2018-10-05T03:34:50.330Z,99.90
2018-10-05T03:37:18.960Z,99.90
2018-10-05T03:39:47.500Z,99.90
2018-10-05T03:47:11.043Z,99.90
2018-10-05T03:49:39.719Z,99.90
2018-10-05T03:52:08.241Z,99.90
2018-10-05T03:54:37.345Z,99.90
2018-10-05T03:57:06.563Z,99.90
2018-10-05T03:59:35.134Z,99.90
2018-10-05T04:02:03.762Z,99.90
2018-10-05T04:04:32.241Z,99.90
2018-10-05T04:07:00.740Z,99.90
2018-10-05T04:09:30.241Z,99.90
2018-10-05T04:11:59.317Z,99.90
2018-10-05T04:14:28.112Z,99.90
2018-10-05T04:16:56.780Z,99.90
2018-10-05T04:19:25.315Z,99.90
2018-10-05T04:21:53.982Z,99.90
2018-10-05T04:24:23.643Z,99.90
2018-10-05T04:26:52.347Z,99.90
2018-10-05T04:29:20.923Z,99.90
2018-10-05T04:31:49.519Z,99.90
2018-10-05T04:34:18.065Z,99.90
2018-10-05T04:36:46.635Z,99.90
2018-10-05T04:44:15.970Z,99.90
2018-10-05T04:46:44.531Z,99.90
2018-10-05T04:49:12.987Z,99.90
2018-10-05T04:51:41.593Z,99.90
2018-10-05T04:54:12.102Z,99.90
2018-10-05T04:56:40.700Z,99.90
2018-10-05T04:59:09.230Z,99.90
2018-10-05T05:01:38.945Z,99.90
2018-10-05T05:04:07.463Z,99.90
2018-10-05T05:06:37.040Z,99.90
2018-10-05T05:09:06.524Z,99.90
2018-10-05T05:11:35.011Z,99.90
2018-10-05T05:14:04.487Z,99.90
2018-10-05T05:16:32.986Z,99.90
2018-10-05T05:19:01.725Z,99.90
2018-10-05T05:21:30.479Z,99.90
2018-10-05T05:23:59.002Z,99.90
2018-10-05T05:26:27.743Z,99.90
2018-10-05T05:28:57.002Z,99.90
2018-10-05T05:31:25.486Z,99.90
2018-10-05T05:33:54.032Z,99.90
2018-10-05T05:36:22.625Z,99.90
2018-10-05T05:38:52.059Z,99.90
2018-10-05T05:41:20.609Z,99.90
2018-10-05T05:43:49.164Z,99.90
2018-10-05T05:46:17.715Z,99.90
2018-10-05T05:48:46.342Z,99.90
2018-10-05T05:56:15.078Z,99.90
2018-10-05T05:58:43.561Z,99.90
2018-10-05T06:01:12.357Z,99.90
2018-10-05T06:03:40.833Z,99.90
2018-10-05T06:06:09.367Z,99.90
2018-10-05T06:08:38.133Z,99.90
2018-10-05T06:11:07.191Z,99.90
2018-10-05T06:13:35.993Z,99.90
2018-10-05T06:16:04.523Z,99.90
2018-10-05T06:18:33.857Z,99.90
2018-10-05T06:21:02.439Z,99.90
2018-10-05T06:23:30.955Z,99.90
2018-10-05T06:25:59.461Z,99.90
2018-10-05T06:28:28.460Z,99.90
2018-10-05T06:30:57.010Z,99.90
2018-10-05T06:33:25.565Z,99.90
2018-10-05T06:35:53.996Z,99.90
2018-10-05T06:38:22.467Z,99.90
2018-10-05T06:40:51.292Z,99.90
2018-10-05T06:43:19.762Z,99.90
2018-10-05T06:45:48.274Z,99.90
2018-10-05T06:48:17.428Z,99.90
2018-10-05T06:50:45.957Z,99.90
2018-10-05T06:58:10.630Z,99.90
2018-10-05T07:00:39.396Z,99.90
2018-10-05T07:03:07.991Z,99.90
2018-10-05T07:05:36.570Z,99.90
2018-10-05T07:08:05.205Z,99.90
2018-10-05T07:10:34.319Z,99.90
2018-10-05T07:13:03.620Z,99.90
2018-10-05T07:15:32.106Z,99.90
2018-10-05T07:18:00.687Z,99.90
2018-10-05T07:20:30.479Z,99.90
2018-10-05T07:22:59.290Z,99.90
2018-10-05T07:25:28.078Z,99.90
2018-10-05T07:27:56.949Z,99.90
2018-10-05T07:30:26.592Z,98.10
2018-10-05T07:32:56.317Z,92.20
2018-10-05T07:35:25.338Z,85.90
2018-10-05T07:37:54.238Z,75.40
2018-10-05T07:40:22.937Z,71.10
2018-10-05T07:42:52.173Z,67.60
2018-10-05T07:45:20.662Z,61.30
2018-10-05T07:47:49.329Z,58.90
2018-10-05T07:50:18.032Z,56.10
2018-10-05T07:52:46.722Z,53.40
2018-10-05T08:02:24.109Z,51.00
2018-10-05T08:04:54.249Z,49.30
2018-10-05T08:07:26.136Z,48.50
2018-10-05T08:09:54.603Z,48.00
2018-10-05T08:12:23.107Z,47.40
2018-10-05T08:14:51.614Z,46.20
2018-10-05T08:17:20.091Z,45.10
2018-10-05T08:19:48.565Z,44.70
2018-10-05T08:22:17.837Z,43.80
2018-10-05T08:24:46.342Z,42.80
2018-10-05T08:32:16.081Z,41.60
2018-10-05T08:34:45.320Z,40.60
2018-10-05T08:42:11.504Z,39.80
2018-10-05T08:44:40.030Z,39.00
2018-10-05T08:47:10.187Z,39.00
2018-10-05T08:49:38.743Z,38.60
2018-10-05T08:52:07.897Z,39.10
2018-10-05T08:54:36.394Z,39.00
2018-10-05T08:57:05.078Z,38.60
2018-10-05T08:59:33.750Z,39.10
2018-10-05T09:02:04.600Z,39.30
2018-10-05T09:04:33.435Z,39.90
2018-10-05T09:07:04.253Z,39.90
2018-10-05T09:09:32.916Z,39.60
2018-10-05T09:12:01.495Z,39.80
2018-10-05T09:14:30.031Z,39.10
2018-10-05T09:16:59.168Z,38.70
2018-10-05T09:19:32.093Z,38.30
2018-10-05T09:22:00.677Z,37.90
2018-10-05T09:24:29.165Z,37.50
2018-10-05T09:26:58.058Z,37.50
2018-10-05T09:29:26.594Z,37.00
2018-10-05T09:31:55.101Z,36.20
2018-10-05T09:34:24.171Z,38.00
2018-10-05T09:36:52.694Z,38.90
2018-10-05T09:39:21.178Z,38.70
2018-10-05T09:41:49.717Z,39.80
2018-10-05T09:44:18.237Z,39.60
2018-10-05T09:46:46.835Z,38.90
2018-10-05T09:54:16.047Z,40.00
2018-10-05T09:56:44.567Z,39.90
2018-10-05T09:59:13.111Z,40.80
2018-10-05T10:01:47.126Z,42.10
2018-10-05T10:04:17.391Z,42.90
2018-10-05T10:06:45.970Z,45.40
2018-10-05T10:14:13.721Z,49.10
2018-10-05T10:16:42.223Z,51.90
2018-10-05T10:19:11.761Z,53.90
2018-10-05T10:21:40.309Z,56.30
2018-10-05T10:24:08.774Z,57.50
2018-10-05T10:26:37.253Z,59.80
2018-10-05T10:29:05.923Z,61.60
2018-10-05T10:31:34.308Z,63.10
2018-10-05T10:34:02.858Z,64.50
2018-10-05T10:36:31.861Z,66.70
2018-10-05T10:39:00.329Z,67.70
2018-10-05T10:41:28.809Z,67.60
2018-10-05T10:43:57.416Z,69.40
2018-10-05T10:46:27.566Z,71.50
2018-10-05T10:48:56.880Z,72.10
2018-10-05T10:51:25.425Z,72.70
2018-10-05T10:53:53.948Z,73.20
2018-10-05T10:56:22.488Z,73.70
2018-10-05T10:58:51.622Z,73.80
2018-10-05T11:01:20.396Z,73.20
2018-10-05T11:03:49.362Z,71.90
2018-10-05T11:06:18.183Z,73.60
2018-10-05T11:08:46.704Z,74.50
2018-10-05T11:16:15.362Z,75.60
2018-10-05T11:18:43.848Z,75.90
2018-10-05T11:21:12.326Z,77.40
2018-10-05T11:23:40.848Z,77.20
2018-10-05T11:26:09.332Z,77.90
2018-10-05T11:28:37.893Z,77.70
2018-10-05T11:31:06.444Z,77.00
2018-10-05T11:33:34.941Z,78.40
2018-10-05T11:36:03.526Z,78.50
2018-10-05T11:38:33.600Z,77.00
2018-10-05T11:41:02.097Z,77.80
2018-10-05T11:43:30.559Z,77.70
2018-10-05T11:45:59.076Z,77.90
2018-10-05T11:48:27.620Z,78.90
2018-10-05T11:50:56.166Z,78.00
2018-10-05T11:53:24.767Z,78.80
2018-10-05T11:55:53.257Z,79.10
2018-10-05T11:58:21.742Z,77.90
2018-10-05T12:00:50.601Z,77.20
2018-10-05T12:03:20.641Z,77.80
2018-10-05T12:05:49.766Z,78.20
2018-10-05T12:08:18.946Z,79.20
2018-10-05T12:10:47.837Z,77.70
2018-10-05T12:13:17.424Z,79.00
2018-10-05T12:15:45.978Z,79.00
2018-10-05T12:23:15.150Z,78.50
2018-10-05T12:25:43.638Z,79.40
2018-10-05T12:28:12.110Z,79.40
2018-10-05T12:30:40.670Z,81.20
2018-10-05T12:33:09.353Z,81.70
2018-10-05T12:35:37.827Z,80.20
2018-10-05T12:38:06.358Z,81.30
2018-10-05T12:40:36.037Z,80.00
2018-10-05T12:43:04.562Z,79.10
2018-10-05T12:45:33.620Z,80.30
2018-10-05T12:48:02.124Z,80.30
2018-10-05T12:50:30.605Z,80.80
2018-10-05T12:52:59.210Z,80.40
2018-10-05T12:55:27.694Z,81.20
2018-10-05T12:57:56.319Z,79.10
2018-10-05T13:00:24.843Z,79.20
2018-10-05T13:02:53.378Z,79.10
2018-10-05T13:05:22.040Z,77.40
2018-10-05T13:07:50.662Z,75.70
2018-10-05T13:10:19.173Z,75.60
2018-10-05T13:12:47.689Z,77.40
2018-10-05T13:15:17.462Z,79.20
2018-10-05T13:17:46.018Z,80.10
2018-10-05T13:25:11.004Z,80.70
2018-10-05T13:27:39.494Z,81.70
2018-10-05T13:30:08.854Z,83.00
2018-10-05T13:32:37.342Z,84.50
2018-10-05T13:35:07.066Z,85.00
2018-10-05T13:37:35.867Z,85.20
2018-10-05T13:40:05.009Z,82.80
2018-10-05T13:42:34.158Z,82.60
2018-10-05T13:45:02.794Z,82.50
2018-10-05T13:47:31.486Z,84.20
2018-10-05T13:50:00.504Z,86.50
2018-10-05T13:52:30.344Z,84.90
2018-10-05T13:54:58.857Z,85.30
2018-10-05T13:57:27.379Z,84.80
2018-10-05T13:59:55.898Z,84.50
2018-10-05T14:02:24.465Z,85.20
2018-10-05T14:04:52.972Z,85.80
2018-10-05T14:07:21.451Z,84.60
2018-10-05T14:09:50.578Z,84.50
2018-10-05T14:12:19.099Z,85.10
2018-10-05T14:14:48.032Z,86.10
2018-10-05T14:17:17.733Z,86.30
2018-10-05T14:19:46.660Z,84.90
2018-10-05T14:27:11.399Z,83.00
2018-10-05T14:29:41.211Z,86.20
2018-10-05T14:32:09.703Z,86.30
2018-10-05T14:34:41.103Z,85.20
2018-10-05T14:37:09.966Z,86.60
2018-10-05T14:39:38.468Z,85.50
2018-10-05T14:42:07.006Z,86.50
2018-10-05T14:44:35.979Z,86.90
2018-10-05T14:47:04.886Z,86.00
2018-10-05T14:49:33.833Z,86.30
2018-10-05T14:52:02.315Z,85.50
2018-10-05T14:54:31.684Z,85.80
2018-10-05T14:57:01.826Z,84.00
2018-10-05T14:59:31.037Z,84.00
2018-10-05T15:02:00.463Z,84.10
2018-10-05T15:04:29.967Z,84.70
2018-10-05T15:07:00.043Z,84.80
2018-10-05T15:09:29.404Z,85.20
2018-10-05T15:11:58.922Z,86.20
2018-10-05T15:14:28.318Z,87.00
2018-10-05T15:16:57.785Z,87.20
2018-10-05T15:19:27.257Z,87.70
2018-10-05T15:21:56.497Z,88.90
2018-10-05T15:24:25.940Z,90.20
2018-10-05T15:26:56.475Z,90.10
2018-10-05T15:29:26.620Z,90.70
2018-10-05T15:31:56.726Z,90.90
2018-10-05T15:34:26.403Z,91.20
2018-10-05T15:36:55.794Z,91.40
2018-10-05T15:39:25.510Z,90.90
2018-10-05T15:41:56.227Z,90.80
2018-10-05T15:44:24.763Z,90.40
2018-10-05T15:46:58.833Z,90.50
2018-10-05T15:49:27.795Z,90.30
2018-10-05T15:51:56.564Z,89.60
2018-10-05T15:54:25.079Z,90.00
2018-10-05T15:56:53.589Z,89.50
2018-10-05T15:59:22.218Z,89.90
2018-10-05T16:01:50.786Z,89.80
2018-10-05T16:04:19.313Z,90.10
2018-10-05T16:06:48.306Z,90.30
2018-10-05T16:09:18.222Z,90.30
2018-10-05T16:11:46.694Z,90.30
2018-10-05T16:19:09.190Z,90.60
2018-10-05T16:21:38.340Z,90.30
2018-10-05T16:24:09.399Z,90.00
2018-10-05T16:26:38.094Z,90.00
2018-10-05T16:29:07.809Z,89.50
2018-10-05T16:31:36.307Z,87.80
2018-10-05T16:34:05.352Z,87.20
2018-10-05T16:36:33.911Z,87.20
2018-10-05T16:39:02.432Z,87.70
2018-10-05T16:41:30.970Z,89.10
2018-10-05T16:43:59.462Z,90.00
2018-10-05T16:46:27.996Z,90.20
2018-10-05T16:48:57.260Z,90.80
2018-10-05T16:51:25.772Z,91.00
2018-10-05T16:53:54.261Z,91.10
2018-10-05T16:56:22.839Z,91.10
2018-10-05T16:58:51.325Z,91.60
2018-10-05T17:01:19.817Z,91.60
2018-10-05T17:03:48.419Z,92.50
2018-10-05T17:06:17.459Z,92.50
2018-10-05T17:08:49.340Z,93.30
2018-10-05T17:11:17.873Z,93.50
2018-10-05T17:13:46.435Z,93.90
2018-10-05T17:21:09.058Z,94.70
2018-10-05T17:23:37.835Z,95.90
2018-10-05T17:26:06.693Z,97.20
2018-10-05T17:28:35.218Z,97.90
2018-10-05T17:31:03.695Z,98.50
2018-10-05T17:33:32.252Z,99.00
2018-10-05T17:36:00.791Z,99.20
2018-10-05T17:38:29.466Z,99.30
2018-10-05T17:40:58.009Z,99.50
2018-10-05T17:43:27.071Z,99.40
2018-10-05T17:45:55.667Z,99.90
2018-10-05T17:48:24.170Z,99.80
2018-10-05T17:50:53.112Z,99.90
2018-10-05T17:53:23.855Z,99.90
2018-10-05T17:55:53.854Z,99.90
2018-10-05T17:58:22.414Z,99.90
2018-10-05T18:00:50.951Z,99.90
2018-10-05T18:03:19.544Z,99.90
2018-10-05T18:05:48.115Z,99.90
2018-10-05T18:08:18.306Z,99.90
2018-10-05T18:10:46.831Z,99.90
2018-10-05T18:18:13.076Z,99.90
2018-10-05T18:20:41.607Z,99.90
2018-10-05T18:23:12.145Z,99.90
2018-10-05T18:25:41.432Z,99.90
2018-10-05T18:28:10.058Z,99.90
2018-10-05T18:30:38.600Z,99.90
2018-10-05T18:33:07.158Z,99.90
2018-10-05T18:35:35.707Z,99.90
2018-10-05T18:38:04.251Z,99.90
2018-10-05T18:40:32.966Z,99.90
2018-10-05T18:43:01.533Z,99.90
2018-10-05T18:45:33.225Z,99.90
2018-10-05T18:48:01.882Z,99.90
2018-10-05T18:50:30.441Z,99.90
2018-10-05T18:52:59.602Z,99.90
2018-10-05T18:55:28.464Z,99.90
2018-10-05T18:57:57.010Z,99.90
2018-10-05T19:00:25.635Z,99.90
2018-10-05T19:02:54.914Z,99.90
2018-10-05T19:05:23.451Z,99.90
2018-10-05T19:07:52.003Z,99.90
2018-10-05T19:10:20.579Z,99.90
2018-10-05T19:12:49.209Z,99.90
2018-10-05T19:15:18.580Z,99.90
2018-10-05T19:17:47.231Z,99.90
2018-10-05T19:20:18.213Z,99.90
2018-10-05T19:22:46.771Z,99.90
2018-10-05T19:30:09.563Z,99.90
2018-10-05T19:32:38.953Z,99.90
2018-10-05T19:35:07.646Z,99.90
2018-10-05T19:37:39.884Z,99.90
2018-10-05T19:40:08.854Z,99.90
2018-10-05T19:42:37.487Z,99.90
2018-10-05T19:45:07.033Z,99.90
2018-10-05T19:47:35.563Z,99.90
2018-10-05T19:50:04.730Z,99.90
2018-10-05T19:52:33.541Z,99.90
2018-10-05T19:55:02.433Z,99.90
2018-10-05T19:57:31.507Z,99.90
2018-10-05T20:00:00.104Z,99.90
2018-10-05T20:02:28.794Z,99.90
2018-10-05T20:04:57.302Z,99.90
2018-10-05T20:07:25.865Z,99.90
2018-10-05T20:09:55.598Z,99.90
2018-10-05T20:12:24.101Z,99.90
2018-10-05T20:14:53.990Z,99.90
2018-10-05T20:17:22.566Z,99.90
2018-10-05T20:19:51.377Z,99.90
2018-10-05T20:22:20.378Z,99.90
2018-10-05T20:24:48.908Z,99.90
2018-10-05T20:27:18.286Z,99.90
2018-10-05T20:29:46.923Z,99.90
2018-10-05T20:39:41.199Z,99.90
2018-10-05T20:42:09.728Z,99.90
2018-10-05T20:44:39.438Z,99.90
2018-10-05T20:47:07.882Z,99.90
2018-10-05T20:49:36.970Z,99.90
2018-10-05T20:52:05.522Z,99.90
2018-10-05T20:54:34.019Z,99.90
2018-10-05T20:57:02.900Z,99.90
2018-10-05T20:59:32.078Z,99.90
2018-10-05T21:02:00.767Z,99.90
2018-10-05T21:04:29.283Z,99.90
2018-10-05T21:06:58.616Z,99.90
2018-10-05T21:09:27.890Z,99.90
2018-10-05T21:11:57.099Z,99.90
2018-10-05T21:14:26.363Z,99.90
2018-10-05T21:16:55.610Z,99.90
2018-10-05T21:19:26.357Z,99.90
2018-10-05T21:21:55.062Z,99.90
2018-10-05T21:24:23.558Z,99.90
2018-10-05T21:26:53.937Z,99.90
2018-10-05T21:29:24.363Z,99.90
2018-10-05T21:31:53.971Z,99.90
2018-10-05T21:34:23.358Z,99.90
2018-10-05T21:36:53.657Z,99.90
2018-10-05T21:39:22.992Z,99.90
2018-10-05T21:41:52.408Z,99.90
2018-10-05T21:44:21.888Z,99.90
2018-10-05T21:46:51.285Z,99.90
2018-10-05T21:49:20.585Z,99.90
2018-10-05T21:51:49.972Z,99.90
2018-10-05T21:54:19.665Z,99.90
2018-10-05T21:56:49.073Z,99.90
2018-10-05T21:59:19.237Z,99.90
2018-10-05T22:01:48.571Z,99.90
2018-10-05T22:04:18.212Z,99.90
2018-10-05T22:06:48.998Z,99.90
2018-10-05T22:09:18.380Z,99.90
2018-10-05T22:11:47.907Z,99.90
2018-10-05T22:14:18.272Z,99.90
2018-10-05T22:16:48.485Z,99.90
2018-10-05T22:19:19.257Z,99.90
2018-10-05T22:21:48.527Z,99.90
2018-10-05T22:24:18.206Z,99.90
2018-10-05T22:26:47.580Z,99.90
2018-10-05T22:29:18.062Z,99.90
2018-10-05T22:31:47.371Z,99.90
2018-10-05T22:34:18.287Z,99.90
2018-10-05T22:36:48.653Z,99.90
2018-10-05T22:39:18.887Z,99.90
2018-10-05T22:41:49.432Z,99.90
2018-10-05T22:44:18.718Z,99.90
2018-10-05T22:46:47.938Z,99.90
2018-10-05T22:49:18.305Z,99.90
2018-10-05T22:51:47.659Z,99.90
2018-10-05T22:59:13.590Z,99.90
2018-10-05T23:01:43.641Z,99.90
2018-10-05T23:04:13.722Z,99.90
2018-10-05T23:06:43.172Z,99.90
2018-10-05T23:09:12.622Z,99.90
2018-10-05T23:11:42.328Z,99.90
2018-10-05T23:14:11.792Z,99.90
2018-10-05T23:16:41.223Z,99.90
2018-10-05T23:19:10.568Z,99.90
2018-10-05T23:21:40.755Z,99.90
2018-10-05T23:24:10.136Z,99.90
2018-10-05T23:26:39.580Z,99.90
2018-10-05T23:29:08.970Z,99.90
2018-10-05T23:31:38.738Z,99.90
2018-10-05T23:34:08.155Z,99.90
2018-10-05T23:36:37.483Z,99.90
2018-10-05T23:39:09.787Z,99.90
2018-10-05T23:41:39.613Z,99.90
2018-10-05T23:44:09.460Z,99.90
2018-10-05T23:46:39.669Z,99.90
2018-10-05T23:49:09.075Z,99.90
2018-10-05T23:51:38.395Z,99.90
2018-10-05T23:54:07.746Z,99.90
2018-10-05T23:56:37.249Z,99.90
2018-10-05T23:59:07.438Z,99.90
